sensor_id;sensor_type;location;lat;lon;timestamp;pressure;altitude;pressure_sealevel;temperature;humidity
61026;BME280;46911;32.650;-16.902;2024-01-30T00:01:31;102254.44;;;16.82;76.62
61026;BME280;46911;32.650;-16.902;2024-01-30T00:03:32;102269.44;;;16.99;76.90
61026;BME280;46911;32.650;-16.902;2024-01-30T00:05:33;102254.22;;;16.85;77.01
61026;BME280;46911;32.650;-16.902;2024-01-30T00:07:33;102263.72;;;16.91;77.04
61026;BME280;46911;32.650;-16.902;2024-01-30T00:09:34;102250.56;;;16.86;76.88
61026;BME280;46911;32.650;-16.902;2024-01-30T00:11:40;102256.78;;;16.87;76.97
61026;BME280;46911;32.650;-16.902;2024-01-30T00:13:43;102244.81;;;16.78;77.08
61026;BME280;46911;32.650;-16.902;2024-01-30T00:15:44;102269.13;;;16.91;76.95
61026;BME280;46911;32.650;-16.902;2024-01-30T00:17:47;102275.38;;;16.92;77.05
61026;BME280;46911;32.650;-16.902;2024-01-30T00:19:48;102244.38;;;16.71;76.90
61026;BME280;46911;32.650;-16.902;2024-01-30T00:21:51;102272.78;;;16.90;76.78
61026;BME280;46911;32.650;-16.902;2024-01-30T00:23:52;102272.47;;;16.95;76.76
61026;BME280;46911;32.650;-16.902;2024-01-30T00:25:58;102271.03;;;16.89;76.81
61026;BME280;46911;32.650;-16.902;2024-01-30T00:28:01;102282.72;;;16.89;76.72
61026;BME280;46911;32.650;-16.902;2024-01-30T00:30:03;102273.09;;;16.85;76.60
61026;BME280;46911;32.650;-16.902;2024-01-30T00:32:09;102271.69;;;16.80;76.85
61026;BME280;46911;32.650;-16.902;2024-01-30T00:34:13;102269.00;;;16.80;76.98
61026;BME280;46911;32.650;-16.902;2024-01-30T00:36:14;102282.47;;;16.80;77.06
61026;BME280;46911;32.650;-16.902;2024-01-30T00:38:18;102264.97;;;16.72;77.00
61026;BME280;46911;32.650;-16.902;2024-01-30T00:40:19;102271.13;;;16.74;77.22
61026;BME280;46911;32.650;-16.902;2024-01-30T00:42:21;102272.31;;;16.70;77.30
61026;BME280;46911;32.650;-16.902;2024-01-30T00:44:26;102271.25;;;16.73;77.46
61026;BME280;46911;32.650;-16.902;2024-01-30T00:46:31;102273.84;;;16.74;77.10
61026;BME280;46911;32.650;-16.902;2024-01-30T00:48:34;102241.47;;;16.62;76.94
61026;BME280;46911;32.650;-16.902;2024-01-30T00:50:40;102270.25;;;16.74;76.88
61026;BME280;46911;32.650;-16.902;2024-01-30T00:52:43;102244.72;;;16.67;76.65
61026;BME280;46911;32.650;-16.902;2024-01-30T00:54:46;102260.34;;;16.74;76.85
61026;BME280;46911;32.650;-16.902;2024-01-30T00:56:50;102254.84;;;16.76;76.98
61026;BME280;46911;32.650;-16.902;2024-01-30T00:58:56;102261.31;;;16.73;77.19
61026;BME280;46911;32.650;-16.902;2024-01-30T01:01:00;102240.75;;;16.60;77.22
61026;BME280;46911;32.650;-16.902;2024-01-30T01:03:01;102256.25;;;16.69;77.33
61026;BME280;46911;32.650;-16.902;2024-01-30T01:05:10;102251.06;;;16.66;77.45
61026;BME280;46911;32.650;-16.902;2024-01-30T01:07:14;102247.81;;;16.61;77.74
61026;BME280;46911;32.650;-16.902;2024-01-30T01:09:21;102242.00;;;16.54;78.05
61026;BME280;46911;32.650;-16.902;2024-01-30T01:11:22;102260.13;;;16.65;78.35
61026;BME280;46911;32.650;-16.902;2024-01-30T01:13:25;102253.75;;;16.66;78.24
61026;BME280;46911;32.650;-16.902;2024-01-30T01:15:28;102259.16;;;16.66;78.41
61026;BME280;46911;32.650;-16.902;2024-01-30T01:17:31;102239.31;;;16.54;78.18
61026;BME280;46911;32.650;-16.902;2024-01-30T01:19:32;102253.31;;;16.59;78.30
61026;BME280;46911;32.650;-16.902;2024-01-30T01:21:33;102248.59;;;16.63;78.08
61026;BME280;46911;32.650;-16.902;2024-01-30T01:23:34;102230.25;;;16.55;78.07
61026;BME280;46911;32.650;-16.902;2024-01-30T01:25:35;102243.31;;;16.61;78.20
61026;BME280;46911;32.650;-16.902;2024-01-30T01:27:36;102228.22;;;16.46;78.31
61026;BME280;46911;32.650;-16.902;2024-01-30T01:29:41;102243.00;;;16.53;78.58
61026;BME280;46911;32.650;-16.902;2024-01-30T01:31:44;102220.13;;;16.46;78.80
61026;BME280;46911;32.650;-16.902;2024-01-30T01:33:48;102241.81;;;16.57;78.56
61026;BME280;46911;32.650;-16.902;2024-01-30T01:35:52;102239.31;;;16.54;78.31
61026;BME280;46911;32.650;-16.902;2024-01-30T01:37:57;102220.75;;;16.36;78.68
61026;BME280;46911;32.650;-16.902;2024-01-30T01:40:03;102243.19;;;16.50;78.79
61026;BME280;46911;32.650;-16.902;2024-01-30T01:42:06;102237.91;;;16.48;79.26
61026;BME280;46911;32.650;-16.902;2024-01-30T01:44:08;102210.44;;;16.30;79.85
61026;BME280;46911;32.650;-16.902;2024-01-30T01:46:11;102242.75;;;16.43;80.75
61026;BME280;46911;32.650;-16.902;2024-01-30T01:48:21;102219.25;;;16.32;81.36
61026;BME280;46911;32.650;-16.902;2024-01-30T01:50:22;102242.84;;;16.42;81.60
61026;BME280;46911;32.650;-16.902;2024-01-30T01:52:29;102207.94;;;16.27;82.01
61026;BME280;46911;32.650;-16.902;2024-01-30T01:54:30;102215.16;;;16.27;81.33
61026;BME280;46911;32.650;-16.902;2024-01-30T01:56:34;102206.84;;;16.30;81.00
61026;BME280;46911;32.650;-16.902;2024-01-30T01:58:36;102221.63;;;16.37;80.18
61026;BME280;46911;32.650;-16.902;2024-01-30T02:00:40;102222.16;;;16.42;79.90
61026;BME280;46911;32.650;-16.902;2024-01-30T02:02:49;102227.34;;;16.45;80.15
61026;BME280;46911;32.650;-16.902;2024-01-30T02:04:55;102219.38;;;16.44;79.96
61026;BME280;46911;32.650;-16.902;2024-01-30T02:06:56;102211.38;;;16.42;79.81
61026;BME280;46911;32.650;-16.902;2024-01-30T02:08:57;102222.06;;;16.44;79.17
61026;BME280;46911;32.650;-16.902;2024-01-30T02:11:03;102200.84;;;16.39;78.73
61026;BME280;46911;32.650;-16.902;2024-01-30T02:13:05;102222.72;;;16.47;78.18
61026;BME280;46911;32.650;-16.902;2024-01-30T02:15:15;102212.38;;;16.54;77.78
61026;BME280;46911;32.650;-16.902;2024-01-30T02:17:16;102205.69;;;16.47;77.62
61026;BME280;46911;32.650;-16.902;2024-01-30T02:19:17;102186.28;;;16.29;77.80
61026;BME280;46911;32.650;-16.902;2024-01-30T02:21:21;102216.69;;;16.44;78.25
61026;BME280;46911;32.650;-16.902;2024-01-30T02:23:25;102192.44;;;16.31;78.05
61026;BME280;46911;32.650;-16.902;2024-01-30T02:25:34;102207.84;;;16.42;78.08
61026;BME280;46911;32.650;-16.902;2024-01-30T02:27:35;102215.91;;;16.42;78.07
61026;BME280;46911;32.650;-16.902;2024-01-30T02:29:36;102186.72;;;16.22;78.27
61026;BME280;46911;32.650;-16.902;2024-01-30T02:31:40;102206.56;;;16.34;78.25
61026;BME280;46911;32.650;-16.902;2024-01-30T02:33:41;102205.91;;;16.31;78.51
61026;BME280;46911;32.650;-16.902;2024-01-30T02:35:42;102196.31;;;16.27;78.65
61026;BME280;46911;32.650;-16.902;2024-01-30T02:37:43;102197.81;;;16.31;78.72
61026;BME280;46911;32.650;-16.902;2024-01-30T02:39:43;102204.16;;;16.30;78.73
61026;BME280;46911;32.650;-16.902;2024-01-30T02:41:47;102199.84;;;16.27;78.65
61026;BME280;46911;32.650;-16.902;2024-01-30T02:43:50;102192.94;;;16.23;78.74
61026;BME280;46911;32.650;-16.902;2024-01-30T02:45:52;102180.88;;;16.16;78.68
61026;BME280;46911;32.650;-16.902;2024-01-30T02:47:52;102136.06;;;15.89;78.87
61026;BME280;46911;32.650;-16.902;2024-01-30T02:49:56;102189.41;;;16.22;79.04
61026;BME280;46911;32.650;-16.902;2024-01-30T02:51:57;102192.00;;;16.24;79.30
61026;BME280;46911;32.650;-16.902;2024-01-30T02:53:58;102192.09;;;16.22;79.03
61026;BME280;46911;32.650;-16.902;2024-01-30T02:55:58;102198.16;;;16.26;79.27
61026;BME280;46911;32.650;-16.902;2024-01-30T02:58:02;102189.97;;;16.28;79.09
61026;BME280;46911;32.650;-16.902;2024-01-30T03:00:06;102184.47;;;16.29;79.09
61026;BME280;46911;32.650;-16.902;2024-01-30T03:02:13;102175.84;;;16.24;78.77
61026;BME280;46911;32.650;-16.902;2024-01-30T03:04:14;102175.00;;;16.23;78.77
61026;BME280;46911;32.650;-16.902;2024-01-30T03:06:15;102165.06;;;16.24;78.45
61026;BME280;46911;32.650;-16.902;2024-01-30T03:08:18;102172.50;;;16.33;78.43
61026;BME280;46911;32.650;-16.902;2024-01-30T03:10:19;102162.69;;;16.32;78.18
61026;BME280;46911;32.650;-16.902;2024-01-30T03:12:19;102175.75;;;16.38;78.24
61026;BME280;46911;32.650;-16.902;2024-01-30T03:14:23;102158.72;;;16.25;78.36
61026;BME280;46911;32.650;-16.902;2024-01-30T03:16:24;102149.75;;;16.24;78.41
61026;BME280;46911;32.650;-16.902;2024-01-30T03:18:27;102170.78;;;16.32;78.52
61026;BME280;46911;32.650;-16.902;2024-01-30T03:20:30;102170.78;;;16.32;78.76
61026;BME280;46911;32.650;-16.902;2024-01-30T03:22:36;102151.16;;;16.17;78.62
61026;BME280;46911;32.650;-16.902;2024-01-30T03:24:39;102176.16;;;16.32;78.74
61026;BME280;46911;32.650;-16.902;2024-01-30T03:26:40;102158.91;;;16.22;79.08
61026;BME280;46911;32.650;-16.902;2024-01-30T03:28:41;102182.50;;;16.31;79.36
61026;BME280;46911;32.650;-16.902;2024-01-30T03:30:44;102170.34;;;16.26;79.65
61026;BME280;46911;32.650;-16.902;2024-01-30T03:32:50;102150.09;;;16.20;80.14
61026;BME280;46911;32.650;-16.902;2024-01-30T03:34:51;102172.06;;;16.27;80.57
61026;BME280;46911;32.650;-16.902;2024-01-30T03:36:51;102164.22;;;16.23;80.60
61026;BME280;46911;32.650;-16.902;2024-01-30T03:38:55;102149.03;;;16.22;80.02
61026;BME280;46911;32.650;-16.902;2024-01-30T03:40:56;102125.66;;;16.10;79.94
61026;BME280;46911;32.650;-16.902;2024-01-30T03:42:57;102136.53;;;16.21;80.02
61026;BME280;46911;32.650;-16.902;2024-01-30T03:44:58;102122.84;;;16.12;79.86
61026;BME280;46911;32.650;-16.902;2024-01-30T03:47:02;102126.28;;;16.14;79.61
61026;BME280;46911;32.650;-16.902;2024-01-30T03:49:09;102146.00;;;16.27;79.69
61026;BME280;46911;32.650;-16.902;2024-01-30T03:51:10;102103.22;;;16.10;80.06
61026;BME280;46911;32.650;-16.902;2024-01-30T03:53:17;102142.66;;;16.36;79.55
61026;BME280;46911;32.650;-16.902;2024-01-30T03:55:18;102136.53;;;16.34;79.36
61026;BME280;46911;32.650;-16.902;2024-01-30T03:57:21;102135.00;;;16.43;78.85
61026;BME280;46911;32.650;-16.902;2024-01-30T03:59:26;102105.50;;;16.29;78.52
61026;BME280;46911;32.650;-16.902;2024-01-30T04:01:31;102132.00;;;16.48;78.56
61026;BME280;46911;32.650;-16.902;2024-01-30T04:03:32;102129.44;;;16.46;78.77
61026;BME280;46911;32.650;-16.902;2024-01-30T04:05:35;102141.16;;;16.45;78.51
61026;BME280;46911;32.650;-16.902;2024-01-30T04:07:38;102129.44;;;16.46;78.30
61026;BME280;46911;32.650;-16.902;2024-01-30T04:09:42;102121.66;;;16.42;77.56
61026;BME280;46911;32.650;-16.902;2024-01-30T04:11:43;102109.81;;;16.44;77.39
61026;BME280;46911;32.650;-16.902;2024-01-30T04:13:44;102126.09;;;16.55;77.33
61026;BME280;46911;32.650;-16.902;2024-01-30T04:15:48;102126.09;;;16.55;77.21
61026;BME280;46911;32.650;-16.902;2024-01-30T04:17:56;102098.63;;;16.37;77.47
61026;BME280;46911;32.650;-16.902;2024-01-30T04:19:57;102102.16;;;16.38;77.71
61026;BME280;46911;32.650;-16.902;2024-01-30T04:21:58;102091.72;;;16.33;77.90
61026;BME280;46911;32.650;-16.902;2024-01-30T04:24:01;102099.38;;;16.39;78.04
61026;BME280;46911;32.650;-16.902;2024-01-30T04:26:02;102076.22;;;16.24;78.52
61026;BME280;46911;32.650;-16.902;2024-01-30T04:28:03;102098.38;;;16.40;78.71
61026;BME280;46911;32.650;-16.902;2024-01-30T04:30:05;102090.75;;;16.34;79.05
61026;BME280;46911;32.650;-16.902;2024-01-30T04:32:09;102079.03;;;16.22;79.09
61026;BME280;46911;32.650;-16.902;2024-01-30T04:34:13;102071.91;;;16.21;79.42
61026;BME280;46911;32.650;-16.902;2024-01-30T04:36:17;102093.47;;;16.34;79.75
61026;BME280;46911;32.650;-16.902;2024-01-30T04:38:22;102083.97;;;16.29;79.62
61026;BME280;46911;32.650;-16.902;2024-01-30T04:40:30;102071.25;;;16.18;79.80
61026;BME280;46911;32.650;-16.902;2024-01-30T04:42:31;102065.88;;;16.18;79.68
61026;BME280;46911;32.650;-16.902;2024-01-30T04:44:31;102065.03;;;16.17;79.40
61026;BME280;46911;32.650;-16.902;2024-01-30T04:46:32;102089.88;;;16.34;79.31
61026;BME280;46911;32.650;-16.902;2024-01-30T04:48:35;102063.19;;;16.18;78.97
61026;BME280;46911;32.650;-16.902;2024-01-30T04:50:38;102082.88;;;16.31;78.75
61026;BME280;46911;32.650;-16.902;2024-01-30T04:52:39;102081.19;;;16.30;78.82
61026;BME280;46911;32.650;-16.902;2024-01-30T04:54:40;102054.56;;;16.13;78.66
61026;BME280;46911;32.650;-16.902;2024-01-30T04:56:40;102018.28;;;15.93;78.79
61026;BME280;46911;32.650;-16.902;2024-01-30T04:58:43;102055.31;;;16.15;78.75
61026;BME280;46911;32.650;-16.902;2024-01-30T05:00:44;102045.75;;;16.11;78.67
61026;BME280;46911;32.650;-16.902;2024-01-30T05:02:47;102067.28;;;16.23;78.65
61026;BME280;46911;32.650;-16.902;2024-01-30T05:04:52;102039.72;;;16.07;78.69
61026;BME280;46911;32.650;-16.902;2024-01-30T05:06:58;102060.47;;;16.18;78.81
61026;BME280;46911;32.650;-16.902;2024-01-30T05:09:01;102069.34;;;16.20;78.59
61026;BME280;46911;32.650;-16.902;2024-01-30T05:11:07;102048.44;;;16.11;78.52
61026;BME280;46911;32.650;-16.902;2024-01-30T05:13:14;102052.97;;;16.10;78.20
61026;BME280;46911;32.650;-16.902;2024-01-30T05:15:14;102069.34;;;16.20;78.35
61026;BME280;46911;32.650;-16.902;2024-01-30T05:17:15;102066.75;;;16.18;78.43
61026;BME280;46911;32.650;-16.902;2024-01-30T05:19:16;102075.78;;;16.17;78.33
61026;BME280;46911;32.650;-16.902;2024-01-30T05:21:18;102064.03;;;16.05;78.38
61026;BME280;46911;32.650;-16.902;2024-01-30T05:23:26;102062.44;;;16.03;78.44
61026;BME280;46911;32.650;-16.902;2024-01-30T05:25:29;102029.72;;;15.83;78.06
61026;BME280;46911;32.650;-16.902;2024-01-30T05:27:30;102086.34;;;16.08;78.46
61026;BME280;46911;32.650;-16.902;2024-01-30T05:29:31;102070.84;;;15.98;78.45
61026;BME280;46911;32.650;-16.902;2024-01-30T05:31:34;102096.22;;;16.07;78.38
61026;BME280;46911;32.650;-16.902;2024-01-30T05:33:35;102069.22;;;15.96;78.62
61026;BME280;46911;32.650;-16.902;2024-01-30T05:35:38;102088.72;;;16.12;78.74
61026;BME280;46911;32.650;-16.902;2024-01-30T05:37:42;102071.13;;;15.94;79.46
61026;BME280;46911;32.650;-16.902;2024-01-30T05:39:43;102094.50;;;16.06;80.25
61026;BME280;46911;32.650;-16.902;2024-01-30T05:41:46;102073.19;;;15.90;80.37
61026;BME280;46911;32.650;-16.902;2024-01-30T05:43:49;102097.31;;;16.04;80.20
61026;BME280;46911;32.650;-16.902;2024-01-30T05:45:53;102099.25;;;16.02;80.04
61026;BME280;46911;32.650;-16.902;2024-01-30T05:47:56;102096.75;;;15.99;80.17
61026;BME280;46911;32.650;-16.902;2024-01-30T05:49:57;102098.72;;;15.97;80.41
61026;BME280;46911;32.650;-16.902;2024-01-30T05:51:58;102100.44;;;15.98;80.51
61026;BME280;46911;32.650;-16.902;2024-01-30T05:54:01;102100.31;;;16.00;80.53
61026;BME280;46911;32.650;-16.902;2024-01-30T05:56:11;102089.56;;;16.00;80.50
61026;BME280;46911;32.650;-16.902;2024-01-30T05:58:15;102090.09;;;15.92;81.00
61026;BME280;46911;32.650;-16.902;2024-01-30T06:00:22;102048.59;;;15.69;81.05
61026;BME280;46911;32.650;-16.902;2024-01-30T06:02:23;102092.78;;;15.92;80.99
61026;BME280;46911;32.650;-16.902;2024-01-30T06:04:27;102095.56;;;15.90;81.30
61026;BME280;46911;32.650;-16.902;2024-01-30T06:06:27;102074.09;;;15.76;81.31
61026;BME280;46911;32.650;-16.902;2024-01-30T06:08:28;102095.13;;;15.84;81.42
61026;BME280;46911;32.650;-16.902;2024-01-30T06:10:29;102093.41;;;15.83;81.48
61026;BME280;46911;32.650;-16.902;2024-01-30T06:12:32;102091.50;;;15.85;81.50
61026;BME280;46911;32.650;-16.902;2024-01-30T06:14:36;102084.59;;;15.81;81.07
61026;BME280;46911;32.650;-16.902;2024-01-30T06:16:41;102094.06;;;15.86;80.75
61026;BME280;46911;32.650;-16.902;2024-01-30T06:18:45;102068.94;;;15.73;80.80
61026;BME280;46911;32.650;-16.902;2024-01-30T06:20:54;102072.59;;;15.72;80.68
61026;BME280;46911;32.650;-16.902;2024-01-30T06:22:58;102088.03;;;15.83;80.38
61026;BME280;46911;32.650;-16.902;2024-01-30T06:24:59;102078.63;;;15.76;80.09
61026;BME280;46911;32.650;-16.902;2024-01-30T06:27:00;102087.28;;;15.81;79.93
61026;BME280;46911;32.650;-16.902;2024-01-30T06:29:00;102080.31;;;15.77;79.85
61026;BME280;46911;32.650;-16.902;2024-01-30T06:31:07;102066.44;;;15.70;79.75
61026;BME280;46911;32.650;-16.902;2024-01-30T06:33:12;102086.28;;;15.82;79.99
61026;BME280;46911;32.650;-16.902;2024-01-30T06:35:14;102063.75;;;15.70;79.91
61026;BME280;46911;32.650;-16.902;2024-01-30T06:37:17;102070.97;;;15.69;79.98
61026;BME280;46911;32.650;-16.902;2024-01-30T06:39:20;102091.59;;;15.83;80.06
61026;BME280;46911;32.650;-16.902;2024-01-30T06:41:23;102073.38;;;15.74;80.04
61026;BME280;46911;32.650;-16.902;2024-01-30T06:43:24;102054.72;;;15.58;80.21
61026;BME280;46911;32.650;-16.902;2024-01-30T06:45:30;102103.31;;;15.82;80.45
61026;BME280;46911;32.650;-16.902;2024-01-30T06:47:35;102075.28;;;15.72;80.42
61026;BME280;46911;32.650;-16.902;2024-01-30T06:49:35;102075.28;;;15.72;80.37
61026;BME280;46911;32.650;-16.902;2024-01-30T06:51:41;102098.38;;;15.89;80.56
61026;BME280;46911;32.650;-16.902;2024-01-30T06:53:42;102098.69;;;15.84;80.54
61026;BME280;46911;32.650;-16.902;2024-01-30T06:55:45;102078.53;;;15.77;80.21
61026;BME280;46911;32.650;-16.902;2024-01-30T06:57:46;102087.19;;;15.82;80.22
61026;BME280;46911;32.650;-16.902;2024-01-30T06:59:49;102073.84;;;15.81;80.21
61026;BME280;46911;32.650;-16.902;2024-01-30T07:01:55;102073.50;;;15.85;80.07
61026;BME280;46911;32.650;-16.902;2024-01-30T07:03:56;102090.84;;;15.94;79.83
61026;BME280;46911;32.650;-16.902;2024-01-30T07:06:04;102092.56;;;15.95;79.81
61026;BME280;46911;32.650;-16.902;2024-01-30T07:08:11;102066.69;;;15.80;79.78
61026;BME280;46911;32.650;-16.902;2024-01-30T07:10:17;102095.47;;;15.92;79.72
61026;BME280;46911;32.650;-16.902;2024-01-30T07:12:21;102082.34;;;15.87;79.81
61026;BME280;46911;32.650;-16.902;2024-01-30T07:14:25;102105.81;;;15.98;79.84
61026;BME280;46911;32.650;-16.902;2024-01-30T07:16:28;102100.44;;;15.98;79.86
61026;BME280;46911;32.650;-16.902;2024-01-30T07:18:31;102104.63;;;16.02;79.74
61026;BME280;46911;32.650;-16.902;2024-01-30T07:20:39;102105.59;;;16.01;79.46
61026;BME280;46911;32.650;-16.902;2024-01-30T07:22:46;102088.34;;;15.91;79.57
61026;BME280;46911;32.650;-16.902;2024-01-30T07:24:48;102094.28;;;15.96;79.55
61026;BME280;46911;32.650;-16.902;2024-01-30T07:26:52;102118.00;;;16.04;80.10
61026;BME280;46911;32.650;-16.902;2024-01-30T07:28:56;102094.19;;;15.85;80.34
61026;BME280;46911;32.650;-16.902;2024-01-30T07:31:05;102113.44;;;15.92;80.37
61026;BME280;46911;32.650;-16.902;2024-01-30T07:33:08;102101.47;;;15.83;80.45
61026;BME280;46911;32.650;-16.902;2024-01-30T07:35:12;102118.63;;;15.95;80.42
61026;BME280;46911;32.650;-16.902;2024-01-30T07:37:16;102126.03;;;15.91;80.39
61026;BME280;46911;32.650;-16.902;2024-01-30T07:39:16;102101.97;;;15.75;80.12
61026;BME280;46911;32.650;-16.902;2024-01-30T07:41:20;102106.28;;;15.78;79.87
61026;BME280;46911;32.650;-16.902;2024-01-30T07:43:21;102121.53;;;15.92;79.64
61026;BME280;46911;32.650;-16.902;2024-01-30T07:45:23;102136.59;;;15.94;79.44
61026;BME280;46911;32.650;-16.902;2024-01-30T07:47:30;102132.19;;;15.93;79.28
61026;BME280;46911;32.650;-16.902;2024-01-30T07:49:36;102098.31;;;15.76;79.10
61026;BME280;46911;32.650;-16.902;2024-01-30T07:51:36;102130.34;;;15.94;79.02
61026;BME280;46911;32.650;-16.902;2024-01-30T07:53:40;102120.09;;;15.86;78.75
61026;BME280;46911;32.650;-16.902;2024-01-30T07:55:42;102140.59;;;16.01;78.63
61026;BME280;46911;32.650;-16.902;2024-01-30T07:57:49;102139.53;;;16.04;78.39
61026;BME280;46911;32.650;-16.902;2024-01-30T07:59:52;102133.19;;;16.05;78.22
61026;BME280;46911;32.650;-16.902;2024-01-30T08:01:54;102138.44;;;16.06;77.95
61026;BME280;46911;32.650;-16.902;2024-01-30T08:03:57;102135.66;;;16.08;77.36
61026;BME280;46911;32.650;-16.902;2024-01-30T08:05:58;102129.81;;;16.01;77.29
61026;BME280;46911;32.650;-16.902;2024-01-30T08:07:59;102148.59;;;16.16;76.89
61026;BME280;46911;32.650;-16.902;2024-01-30T08:10:00;102150.22;;;16.18;76.67
61026;BME280;46911;32.650;-16.902;2024-01-30T08:12:00;102149.31;;;16.18;76.57
61026;BME280;46911;32.650;-16.902;2024-01-30T08:14:02;102142.97;;;16.19;76.23
61026;BME280;46911;32.650;-16.902;2024-01-30T08:16:05;102132.84;;;16.10;76.02
61026;BME280;46911;32.650;-16.902;2024-01-30T08:18:11;102136.94;;;16.15;75.92
61026;BME280;46911;32.650;-16.902;2024-01-30T08:20:14;102160.00;;;16.32;75.68
61026;BME280;46911;32.650;-16.902;2024-01-30T08:22:17;102155.94;;;16.39;75.54
61026;BME280;46911;32.650;-16.902;2024-01-30T08:24:18;102157.09;;;16.35;75.34
61026;BME280;46911;32.650;-16.902;2024-01-30T08:26:21;102164.88;;;16.40;75.68
61026;BME280;46911;32.650;-16.902;2024-01-30T08:28:24;102147.50;;;16.31;75.62
61026;BME280;46911;32.650;-16.902;2024-01-30T08:30:26;102162.91;;;16.42;75.23
61026;BME280;46911;32.650;-16.902;2024-01-30T08:32:27;102153.88;;;16.30;75.12
61026;BME280;46911;32.650;-16.902;2024-01-30T08:34:28;102177.81;;;16.48;74.89
61026;BME280;46911;32.650;-16.902;2024-01-30T08:36:29;102176.06;;;16.47;75.02
61026;BME280;46911;32.650;-16.902;2024-01-30T08:38:30;102154.63;;;16.45;75.05
61026;BME280;46911;32.650;-16.902;2024-01-30T08:40:31;102173.38;;;16.60;74.41
61026;BME280;46911;32.650;-16.902;2024-01-30T08:42:32;102170.03;;;16.56;74.45
61026;BME280;46911;32.650;-16.902;2024-01-30T08:44:38;102163.88;;;16.54;74.43
61026;BME280;46911;32.650;-16.902;2024-01-30T08:46:44;102147.63;;;16.55;74.36
61026;BME280;46911;32.650;-16.902;2024-01-30T08:48:46;102190.19;;;16.76;74.30
61026;BME280;46911;32.650;-16.902;2024-01-30T08:50:48;102162.81;;;16.69;74.18
61026;BME280;46911;32.650;-16.902;2024-01-30T08:52:49;102161.09;;;16.81;74.13
61026;BME280;46911;32.650;-16.902;2024-01-30T08:54:54;102171.00;;;16.94;73.90
61026;BME280;46911;32.650;-16.902;2024-01-30T08:56:55;102192.97;;;17.13;73.66
61026;BME280;46911;32.650;-16.902;2024-01-30T08:58:57;102198.25;;;17.28;73.38
61026;BME280;46911;32.650;-16.902;2024-01-30T09:00:58;102200.59;;;17.32;72.93
61026;BME280;46911;32.650;-16.902;2024-01-30T09:02:59;102167.28;;;17.20;72.82
61026;BME280;46911;32.650;-16.902;2024-01-30T09:05:03;102199.38;;;17.36;72.74
61026;BME280;46911;32.650;-16.902;2024-01-30T09:07:09;102175.25;;;17.22;73.01
61026;BME280;46911;32.650;-16.902;2024-01-30T09:09:12;102199.16;;;17.39;72.96
61026;BME280;46911;32.650;-16.902;2024-01-30T09:11:22;102173.72;;;17.31;72.82
61026;BME280;46911;32.650;-16.902;2024-01-30T09:13:27;102198.59;;;17.47;72.71
61026;BME280;46911;32.650;-16.902;2024-01-30T09:15:28;102180.06;;;17.43;72.51
61026;BME280;46911;32.650;-16.902;2024-01-30T09:17:31;102196.06;;;17.57;72.45
61026;BME280;46911;32.650;-16.902;2024-01-30T09:19:33;102177.41;;;17.54;72.34
61026;BME280;46911;32.650;-16.902;2024-01-30T09:21:34;102179.66;;;17.60;72.10
61026;BME280;46911;32.650;-16.902;2024-01-30T09:23:35;102200.84;;;17.78;71.72
61026;BME280;46911;32.650;-16.902;2024-01-30T09:25:36;102206.53;;;17.86;71.89
61026;BME280;46911;32.650;-16.902;2024-01-30T09:27:37;102197.09;;;17.91;71.68
61026;BME280;46911;32.650;-16.902;2024-01-30T09:29:40;102201.72;;;18.02;71.63
61026;BME280;46911;32.650;-16.902;2024-01-30T09:31:47;102209.03;;;18.13;71.19
61026;BME280;46911;32.650;-16.902;2024-01-30T09:33:50;102202.66;;;18.26;70.69
61026;BME280;46911;32.650;-16.902;2024-01-30T09:35:52;102208.22;;;18.35;70.46
61026;BME280;46911;32.650;-16.902;2024-01-30T09:37:52;102192.88;;;18.47;70.16
61026;BME280;46911;32.650;-16.902;2024-01-30T09:39:57;102208.75;;;18.74;69.26
61026;BME280;46911;32.650;-16.902;2024-01-30T09:42:37;102209.06;;;18.94;68.92
61026;BME280;46911;32.650;-16.902;2024-01-30T09:44:43;102222.84;;;19.14;68.51
61026;BME280;46911;32.650;-16.902;2024-01-30T09:46:47;102217.53;;;19.35;67.58
61026;BME280;46911;32.650;-16.902;2024-01-30T09:48:49;102219.53;;;19.65;66.77
61026;BME280;46911;32.650;-16.902;2024-01-30T09:50:51;102214.41;;;19.95;65.64
61026;BME280;46911;32.650;-16.902;2024-01-30T09:52:55;102218.25;;;20.24;64.59
61026;BME280;46911;32.650;-16.902;2024-01-30T09:55:00;102202.22;;;20.43;63.65
61026;BME280;46911;32.650;-16.902;2024-01-30T09:57:02;102224.88;;;20.74;63.17
61026;BME280;46911;32.650;-16.902;2024-01-30T09:59:08;102227.47;;;20.85;62.74
61026;BME280;46911;32.650;-16.902;2024-01-30T10:01:09;102215.69;;;20.96;62.48
61026;BME280;46911;32.650;-16.902;2024-01-30T10:03:10;102241.69;;;21.39;62.01
61026;BME280;46911;32.650;-16.902;2024-01-30T10:05:15;102236.22;;;21.80;62.09
61026;BME280;46911;32.650;-16.902;2024-01-30T10:07:17;102225.25;;;22.01;61.64
61026;BME280;46911;32.650;-16.902;2024-01-30T10:09:21;102241.41;;;21.93;62.36
61026;BME280;46911;32.650;-16.902;2024-01-30T10:11:27;102238.50;;;21.75;63.13
61026;BME280;46911;32.650;-16.902;2024-01-30T10:13:28;102234.66;;;21.68;64.12
61026;BME280;46911;32.650;-16.902;2024-01-30T10:15:29;102237.50;;;21.86;64.40
61026;BME280;46911;32.650;-16.902;2024-01-30T10:17:32;102230.25;;;22.16;63.92
61026;BME280;46911;32.650;-16.902;2024-01-30T10:19:34;102235.53;;;22.07;63.14
61026;BME280;46911;32.650;-16.902;2024-01-30T10:21:40;102251.69;;;22.29;63.03
61026;BME280;46911;32.650;-16.902;2024-01-30T10:23:41;102209.63;;;22.23;62.96
61026;BME280;46911;32.650;-16.902;2024-01-30T10:25:44;102224.53;;;23.33;59.63
61026;BME280;46911;32.650;-16.902;2024-01-30T10:27:45;102233.09;;;24.20;58.12